Aérodrome :
LOGIN :

S'inscrire | Disclaimer

   EN    FR    IT 

 










Légende :    VFR   VFR Marginal   IFR   IFR Intensif   IFR Très Intensif
Visi : 
Plafond : 
>= 8 km
>= 3000ft
5 à 8 km
1000 à 3000 ft
1500m à 5 km
500 à 1000 ft
800 à 1500m
200 à 500 ft
< 800m
< 200 ft
Symboles :   Orages  Brouillard  Fortes neiges  Fortes précipitations  Vent > 20 kt
SIGMETs :   Divers  Orages  Givrage  Turbulence  Onde Orograph.  Cendres Volcan.






- Altitude de l'aérodrome : 1411 ft
- Code IATA : ZHI


LSZG - Grenchen

DERNIER METAR :
  • 151950Z AUTO 04005KT 9000 NSC M05/M05 Q1026

METARs EXPIRÉS :
  • 151920Z AUTO 02006KT 9999 NSC M04/M04 Q1025
  • 151850Z AUTO 04007KT 9999 FEW033 OVC037 M03/M03 Q1025
  • 151820Z AUTO 05007KT 9999 BKN038 M02/M03 Q1025
  • 151750Z AUTO 03005KT 9999 BKN043 M02/M03 Q1025
  • 151720Z AUTO 06006KT 9999 BKN042 M02/M03 Q1024

TAF TAF LSZG
Valide du 15 à 15h jusqu'au 16 à 00h UTC


151425Z 1515/1524 07008KT 7000 FEW008 SCT012 BKN040
PROB30
TEMPO 1515/1517 4000 -SN BKN012
ATIS : +41 32 396 96 33



MET'MAP, la Météo Aéronautique d'un coup d'oeil ! - Copyright ORBIFLY Décembre 2007 - Disclaimer

ORBIFLY MET'MAP TEAM :

Programmation & Développement : Alexandra Zaïnal
Sur une idée originale de : Baudouin d'Aumeries
Assistance à la programmation : Marc-Olivier Méhu
Soutien technique & logistique : Manuel Goepfert

Contact : metmap@orbifly.com




SOURCES & CREDITS :

   NOAA